Time;durP1;ratioP1;P1;durP2;ratioP2;P2;SDS_P1;SDS_P2;PMS_P1;PMS_P2;Temp;Humidity;BMP_temperature;BMP_pressure;BME280_temperature;BME280_humidity;BME280_pressure;Samples;Min_cycle;Max_cycle;Signal;HPM_P1;HPM_P2
2023/03/15 00:01:38;;;;;;;5.50;3.60;;;;;;;;;;79644;264;3036962;-34
2023/03/15 00:04:16;;;;;;;6.20;3.60;;;;;;;;;;80359;264;3011770;-34
2023/03/15 00:06:54;;;;;;;5.90;3.60;;;;;;;;;;79630;264;3031860;-34
2023/03/15 00:09:34;;;;;;;6.20;3.80;;;;;;;;;;79617;264;3027960;-34
2023/03/15 00:12:11;;;;;;;5.40;3.60;;;;;;;;;;79673;264;3027544;-34
2023/03/15 00:14:47;;;;;;;6.50;3.90;;;;;;;;;;79639;264;3029628;-34
2023/03/15 00:17:23;;;;;;;6.20;3.80;;;;;;;;;;79614;265;3031506;-34
2023/03/15 00:20:05;;;;;;;6.20;3.70;;;;;;;;;;79620;264;3028281;-34
2023/03/15 00:22:49;;;;;;;6.00;3.70;;;;;;;;;;79673;264;3027699;-34
2023/03/15 00:25:26;;;;;;;6.10;3.90;;;;;;;;;;79675;264;3030838;-34
2023/03/15 00:28:01;;;;;;;6.10;3.50;;;;;;;;;;79656;264;3032076;-34
2023/03/15 00:30:37;;;;;;;5.50;3.60;;;;;;;;;;79630;264;3028586;-34
2023/03/15 00:33:17;;;;;;;6.00;3.70;;;;;;;;;;79649;264;3027817;-34
2023/03/15 00:35:53;;;;;;;6.50;3.50;;;;;;;;;;79671;264;3031069;-34
2023/03/15 00:38:32;;;;;;;5.90;3.80;;;;;;;;;;79679;264;3031631;-34
2023/03/15 00:41:12;;;;;;;6.00;3.40;;;;;;;;;;79646;264;3028858;-34
2023/03/15 00:43:50;;;;;;;5.80;3.30;;;;;;;;;;79641;264;3027831;-34
2023/03/15 00:46:26;;;;;;;6.10;3.30;;;;;;;;;;79651;264;3031669;-34
2023/03/15 00:49:02;;;;;;;5.10;3.00;;;;;;;;;;79642;264;3031935;-34
2023/03/15 00:51:41;;;;;;;5.40;3.10;;;;;;;;;;79643;264;3028681;-34
2023/03/15 00:54:22;;;;;;;5.20;2.70;;;;;;;;;;79644;264;3027217;-34
2023/03/15 00:57:02;;;;;;;5.10;2.50;;;;;;;;;;79624;264;3032600;-34
2023/03/15 00:59:39;;;;;;;4.90;2.60;;;;;;;;;;79642;264;3031781;-34
2023/03/15 01:02:20;;;;;;;4.50;2.20;;;;;;;;;;79623;264;3028011;-34
2023/03/15 01:05:02;;;;;;;4.20;2.00;;;;;;;;;;79659;253;3029216;-34
2023/03/15 01:07:41;;;;;;;4.70;2.10;;;;;;;;;;79635;264;3030728;-34
2023/03/15 01:10:21;;;;;;;4.40;2.10;;;;;;;;;;79606;264;3031664;-34
2023/03/15 01:12:58;;;;;;;4.20;2.00;;;;;;;;;;79736;261;3034289;-34
2023/03/15 01:15:43;;;;;;;3.70;1.80;;;;;;;;;;79653;264;3027468;-34
2023/03/15 01:18:22;;;;;;;4.10;1.80;;;;;;;;;;79676;264;3030890;-34
2023/03/15 01:21:01;;;;;;;3.50;1.80;;;;;;;;;;79624;264;3031324;-34
2023/03/15 01:23:38;;;;;;;3.90;1.80;;;;;;;;;;79637;261;3028807;-34
2023/03/15 01:26:18;;;;;;;3.40;1.50;;;;;;;;;;79682;264;3027908;-34
2023/03/15 01:29:00;;;;;;;3.50;1.70;;;;;;;;;;79697;264;3030623;-34
2023/03/15 01:31:43;;;;;;;3.50;1.50;;;;;;;;;;79664;264;3031625;-34
2023/03/15 01:34:23;;;;;;;3.60;1.60;;;;;;;;;;79691;260;3028924;-34
2023/03/15 01:37:06;;;;;;;3.60;1.60;;;;;;;;;;79645;264;3027104;-34
2023/03/15 01:39:48;;;;;;;3.20;1.40;;;;;;;;;;79693;264;3030552;-34
2023/03/15 01:42:30;;;;;;;3.60;1.40;;;;;;;;;;79651;264;3031530;-34
2023/03/15 01:45:19;;;;;;;3.40;1.40;;;;;;;;;;79665;264;3028542;-34
2023/03/15 01:47:59;;;;;;;3.20;1.40;;;;;;;;;;79671;264;3030258;-34
2023/03/15 01:50:42;;;;;;;3.60;1.60;;;;;;;;;;79700;264;3031228;-34
2023/03/15 01:53:24;;;;;;;3.60;1.40;;;;;;;;;;79323;264;3031526;-34
2023/03/15 01:56:06;;;;;;;3.30;1.40;;;;;;;;;;79673;264;3031845;-34
2023/03/15 01:58:45;;;;;;;3.60;1.20;;;;;;;;;;79728;264;3028793;-34
2023/03/15 02:01:30;;;;;;;3.50;1.30;;;;;;;;;;79679;264;3027074;-34
2023/03/15 02:04:13;;;;;;;2.90;1.20;;;;;;;;;;79655;264;3039545;-34
2023/03/15 02:06:57;;;;;;;3.20;1.20;;;;;;;;;;79652;268;3031770;-34
2023/03/15 02:09:45;;;;;;;2.70;1.10;;;;;;;;;;79675;264;3028230;-34
2023/03/15 02:12:25;;;;;;;2.90;1.20;;;;;;;;;;79644;264;3027020;-34
2023/03/15 02:15:03;;;;;;;2.70;1.00;;;;;;;;;;79659;264;3030998;-34
2023/03/15 02:17:42;;;;;;;3.00;1.30;;;;;;;;;;79655;264;3032028;-34
2023/03/15 02:20:31;;;;;;;3.00;1.20;;;;;;;;;;79674;264;3029515;-34
2023/03/15 02:23:11;;;;;;;3.30;1.10;;;;;;;;;;79660;264;3027855;-34
2023/03/15 02:25:56;;;;;;;2.80;1.20;;;;;;;;;;79628;264;3030744;-34
2023/03/15 02:28:36;;;;;;;2.90;1.00;;;;;;;;;;79640;264;3031338;-34
2023/03/15 02:31:14;;;;;;;2.80;1.10;;;;;;;;;;79647;264;3028586;-34
2023/03/15 02:33:54;;;;;;;2.60;1.00;;;;;;;;;;79632;264;3027079;-34
2023/03/15 02:36:33;;;;;;;2.80;1.00;;;;;;;;;;79649;264;3031118;-34
2023/03/15 02:39:19;;;;;;;2.80;1.00;;;;;;;;;;79624;264;3031700;-34
2023/03/15 02:41:58;;;;;;;2.60;1.00;;;;;;;;;;79657;264;3028776;-34
2023/03/15 02:44:36;;;;;;;2.30;0.90;;;;;;;;;;79627;264;3027909;-34
2023/03/15 02:47:21;;;;;;;2.60;1.10;;;;;;;;;;79642;264;3032066;-34
2023/03/15 02:50:01;;;;;;;2.30;0.90;;;;;;;;;;79616;264;3031826;-34
2023/03/15 02:52:40;;;;;;;2.50;1.00;;;;;;;;;;79621;264;3028317;-34
2023/03/15 02:55:18;;;;;;;2.50;0.90;;;;;;;;;;79648;264;3034692;-34
2023/03/15 02:57:57;;;;;;;2.70;1.10;;;;;;;;;;79630;264;3030875;-34
2023/03/15 03:00:38;;;;;;;2.60;0.90;;;;;;;;;;79567;264;3031693;-33
2023/03/15 03:03:13;;;;;;;2.90;0.90;;;;;;;;;;79584;264;3028289;-33
2023/03/15 03:05:50;;;;;;;2.50;1.00;;;;;;;;;;79656;264;3027336;-33
2023/03/15 03:08:27;;;;;;;2.80;0.90;;;;;;;;;;79657;264;3030787;-34
2023/03/15 03:11:02;;;;;;;2.70;0.90;;;;;;;;;;79652;264;3031798;-34
2023/03/15 03:13:38;;;;;;;2.80;1.00;;;;;;;;;;80327;264;3012875;-34
2023/03/15 03:16:17;;;;;;;2.60;0.90;;;;;;;;;;79624;264;3028669;-34
2023/03/15 03:18:52;;;;;;;2.20;0.90;;;;;;;;;;79638;264;3027846;-34
2023/03/15 03:21:32;;;;;;;2.90;1.00;;;;;;;;;;79660;264;3030885;-34
2023/03/15 03:24:09;;;;;;;2.50;0.90;;;;;;;;;;79627;256;3031917;-34
2023/03/15 03:26:45;;;;;;;2.40;0.80;;;;;;;;;;79663;264;3028671;-34
2023/03/15 03:29:22;;;;;;;2.80;0.90;;;;;;;;;;79638;264;3027265;-34
2023/03/15 03:31:59;;;;;;;3.10;1.00;;;;;;;;;;79642;252;3031336;-34
2023/03/15 03:34:37;;;;;;;2.60;1.00;;;;;;;;;;79605;264;3032405;-34
2023/03/15 03:37:13;;;;;;;2.40;0.90;;;;;;;;;;79658;264;3028450;-34
2023/03/15 03:39:50;;;;;;;2.60;1.00;;;;;;;;;;80371;264;3011431;-34
2023/03/15 03:42:29;;;;;;;2.40;1.10;;;;;;;;;;79643;264;3028027;-34
2023/03/15 03:45:04;;;;;;;2.30;0.90;;;;;;;;;;79607;264;3030474;-34
2023/03/15 03:47:40;;;;;;;2.10;0.80;;;;;;;;;;79625;264;3031237;-34
2023/03/15 03:50:21;;;;;;;2.50;1.00;;;;;;;;;;79671;264;3028210;-34
2023/03/15 03:52:56;;;;;;;3.40;1.00;;;;;;;;;;79640;264;3027502;-34
2023/03/15 03:55:34;;;;;;;2.40;0.90;;;;;;;;;;79617;264;3031374;-34
2023/03/15 03:58:17;;;;;;;2.60;0.90;;;;;;;;;;79630;264;3031772;-34
2023/03/15 04:00:57;;;;;;;3.50;1.20;;;;;;;;;;79636;264;3027925;-34
2023/03/15 04:03:35;;;;;;;2.90;1.10;;;;;;;;;;79664;264;3026976;-34
2023/03/15 04:06:11;;;;;;;2.90;1.10;;;;;;;;;;79624;264;3030861;-34
2023/03/15 04:08:48;;;;;;;3.40;1.30;;;;;;;;;;79671;264;3031374;-34
2023/03/15 04:11:26;;;;;;;4.10;1.30;;;;;;;;;;79658;264;3028844;-34
2023/03/15 04:14:02;;;;;;;3.30;1.10;;;;;;;;;;79643;264;3026994;-34
2023/03/15 04:16:37;;;;;;;3.20;1.10;;;;;;;;;;79578;264;3030864;-34
2023/03/15 04:19:12;;;;;;;3.00;1.10;;;;;;;;;;80318;264;3013002;-34
2023/03/15 04:21:51;;;;;;;3.00;1.20;;;;;;;;;;80348;264;3012414;-34
2023/03/15 04:24:27;;;;;;;3.00;1.20;;;;;;;;;;79629;264;3031903;-34
2023/03/15 04:27:06;;;;;;;3.50;1.20;;;;;;;;;;79598;264;3028733;-34
2023/03/15 04:29:42;;;;;;;3.50;1.20;;;;;;;;;;79653;264;3027080;-34
2023/03/15 04:32:21;;;;;;;3.50;1.20;;;;;;;;;;79628;264;3031352;-34
2023/03/15 04:34:57;;;;;;;3.60;1.30;;;;;;;;;;79644;264;3032496;-34
2023/03/15 04:37:33;;;;;;;3.10;1.20;;;;;;;;;;80362;264;3011649;-34
2023/03/15 04:40:12;;;;;;;4.10;1.30;;;;;;;;;;79647;264;3028316;-34
2023/03/15 04:42:49;;;;;;;4.30;1.30;;;;;;;;;;79687;264;3027935;-34
2023/03/15 04:45:29;;;;;;;3.30;1.30;;;;;;;;;;79603;264;3031009;-34
2023/03/15 04:48:07;;;;;;;3.30;1.20;;;;;;;;;;79653;264;3037804;-34
2023/03/15 04:50:43;;;;;;;4.50;1.40;;;;;;;;;;79648;264;3028571;-34
2023/03/15 04:53:21;;;;;;;3.70;1.30;;;;;;;;;;79633;264;3027615;-34
2023/03/15 04:55:57;;;;;;;3.60;1.30;;;;;;;;;;79610;264;3031094;-34
2023/03/15 04:58:32;;;;;;;3.70;1.20;;;;;;;;;;79640;264;3031829;-34
2023/03/15 05:01:14;;;;;;;3.20;1.20;;;;;;;;;;80366;264;3011537;-34
2023/03/15 05:03:53;;;;;;;3.40;1.20;;;;;;;;;;79669;264;3028319;-34
2023/03/15 05:06:29;;;;;;;2.90;1.10;;;;;;;;;;79611;264;3027643;-34
2023/03/15 05:09:05;;;;;;;3.20;1.10;;;;;;;;;;79611;264;3031053;-34
2023/03/15 05:11:48;;;;;;;3.10;1.10;;;;;;;;;;79632;264;3032120;-34
2023/03/15 05:14:25;;;;;;;3.80;1.30;;;;;;;;;;79650;264;3028155;-34
2023/03/15 05:17:03;;;;;;;4.00;1.40;;;;;;;;;;79626;264;3027769;-34
2023/03/15 05:19:45;;;;;;;3.00;1.10;;;;;;;;;;79665;264;3030415;-34
2023/03/15 05:22:24;;;;;;;3.20;1.20;;;;;;;;;;79663;264;3031795;-34
2023/03/15 05:25:03;;;;;;;3.10;1.10;;;;;;;;;;79614;264;3028130;-34
2023/03/15 05:27:38;;;;;;;4.50;1.30;;;;;;;;;;79630;264;3029668;-34
2023/03/15 05:30:16;;;;;;;3.40;1.40;;;;;;;;;;79634;264;3030489;-34
2023/03/15 05:32:53;;;;;;;3.50;1.00;;;;;;;;;;79607;264;3031910;-34
2023/03/15 05:35:30;;;;;;;2.70;1.00;;;;;;;;;;79588;264;3028504;-34
2023/03/15 05:38:08;;;;;;;2.90;1.10;;;;;;;;;;79601;264;3027511;-34
2023/03/15 05:40:45;;;;;;;2.70;1.10;;;;;;;;;;79649;264;3031206;-34
2023/03/15 05:43:24;;;;;;;3.80;1.20;;;;;;;;;;79615;264;3031478;-34
2023/03/15 05:46:04;;;;;;;3.00;1.20;;;;;;;;;;80365;264;3013232;-34
2023/03/15 05:48:42;;;;;;;3.90;1.10;;;;;;;;;;79577;264;3028793;-34
2023/03/15 05:51:20;;;;;;;3.30;1.20;;;;;;;;;;79665;264;3027469;-34
2023/03/15 05:53:55;;;;;;;2.70;1.10;;;;;;;;;;79659;264;3031586;-34
2023/03/15 05:56:33;;;;;;;3.10;1.10;;;;;;;;;;80351;264;3011468;-34
2023/03/15 05:59:10;;;;;;;3.80;1.30;;;;;;;;;;79610;264;3031626;-34
2023/03/15 06:01:46;;;;;;;4.20;1.20;;;;;;;;;;79644;264;3028329;-34
2023/03/15 06:04:23;;;;;;;2.80;1.10;;;;;;;;;;79617;264;3029363;-34
2023/03/15 06:07:01;;;;;;;3.50;1.40;;;;;;;;;;79653;264;3030468;-34
2023/03/15 06:09:37;;;;;;;3.30;1.30;;;;;;;;;;79637;264;3031607;-34
2023/03/15 06:12:13;;;;;;;4.10;1.30;;;;;;;;;;79648;264;3029048;-34
2023/03/15 06:14:52;;;;;;;3.20;1.20;;;;;;;;;;79669;264;3027212;-34
2023/03/15 06:17:30;;;;;;;3.70;1.20;;;;;;;;;;79630;264;3031275;-34
2023/03/15 06:20:06;;;;;;;4.60;1.30;;;;;;;;;;79661;264;3031786;-34
2023/03/15 06:22:41;;;;;;;2.80;1.10;;;;;;;;;;79662;264;3028219;-34
2023/03/15 06:25:18;;;;;;;2.90;1.10;;;;;;;;;;80368;264;3011904;-34
2023/03/15 06:27:56;;;;;;;3.40;1.10;;;;;;;;;;79611;253;3027684;-34
2023/03/15 06:30:37;;;;;;;3.80;1.30;;;;;;;;;;79666;261;3030733;-34
2023/03/15 06:33:13;;;;;;;3.60;1.30;;;;;;;;;;79621;264;3031781;-34
2023/03/15 06:35:52;;;;;;;3.40;1.10;;;;;;;;;;79654;264;3028458;-34
2023/03/15 06:38:30;;;;;;;3.60;1.30;;;;;;;;;;79598;264;3027842;-34
2023/03/15 06:41:16;;;;;;;3.30;1.20;;;;;;;;;;79673;264;3031290;-34
2023/03/15 06:43:59;;;;;;;3.60;1.30;;;;;;;;;;79650;264;3031946;-34
2023/03/15 06:46:38;;;;;;;3.60;1.30;;;;;;;;;;79659;264;3028034;-34
2023/03/15 06:49:16;;;;;;;3.60;1.30;;;;;;;;;;79619;264;3027201;-34
2023/03/15 06:51:56;;;;;;;3.50;1.40;;;;;;;;;;79631;264;3031082;-34
2023/03/15 06:54:33;;;;;;;3.30;1.30;;;;;;;;;;79650;264;3031552;-34
2023/03/15 06:57:11;;;;;;;4.40;1.60;;;;;;;;;;79627;264;3028192;-34
2023/03/15 06:59:49;;;;;;;3.30;1.40;;;;;;;;;;79623;264;3027078;-34
2023/03/15 07:02:35;;;;;;;3.40;1.40;;;;;;;;;;79675;264;3030973;-34
2023/03/15 07:05:12;;;;;;;3.50;1.30;;;;;;;;;;79639;264;3031316;-34
2023/03/15 07:07:53;;;;;;;3.30;1.20;;;;;;;;;;79671;264;3028589;-34
2023/03/15 07:10:33;;;;;;;4.40;1.50;;;;;;;;;;79612;264;3027225;-34
2023/03/15 07:13:10;;;;;;;4.00;1.40;;;;;;;;;;79636;257;3031331;-34
2023/03/15 07:15:56;;;;;;;4.20;1.50;;;;;;;;;;79676;264;3031154;-34
2023/03/15 07:18:33;;;;;;;4.30;1.40;;;;;;;;;;79658;264;3028012;-34
2023/03/15 07:21:08;;;;;;;3.40;1.50;;;;;;;;;;79634;264;3027674;-34
2023/03/15 07:23:48;;;;;;;4.00;1.50;;;;;;;;;;80364;264;3011457;-34
2023/03/15 07:26:26;;;;;;;4.10;1.90;;;;;;;;;;79632;256;3030984;-34
2023/03/15 07:29:02;;;;;;;4.00;2.40;;;;;;;;;;79665;257;3031284;-34
2023/03/15 07:31:40;;;;;;;4.50;2.40;;;;;;;;;;79630;264;3035827;-34
2023/03/15 07:34:16;;;;;;;5.60;3.10;;;;;;;;;;79660;264;3027568;-34
2023/03/15 07:36:52;;;;;;;6.50;4.80;;;;;;;;;;79668;264;3031296;-34
2023/03/15 07:39:31;;;;;;;7.10;4.70;;;;;;;;;;79652;264;3031875;-34
2023/03/15 07:42:07;;;;;;;7.30;5.10;;;;;;;;;;79620;265;3028240;-34
2023/03/15 07:44:46;;;;;;;7.20;5.10;;;;;;;;;;79638;264;3027342;-34
2023/03/15 07:47:21;;;;;;;8.10;5.30;;;;;;;;;;79626;264;3030802;-34
2023/03/15 07:49:56;;;;;;;8.30;5.70;;;;;;;;;;80414;264;3011335;-34
2023/03/15 07:52:33;;;;;;;7.90;5.60;;;;;;;;;;80439;264;3011490;-34
2023/03/15 07:55:10;;;;;;;8.50;5.80;;;;;;;;;;80394;264;3011564;-34
2023/03/15 07:57:45;;;;;;;7.60;5.70;;;;;;;;;;79704;264;3031364;-34
2023/03/15 08:00:25;;;;;;;8.40;5.50;;;;;;;;;;79674;264;3028255;-34
2023/03/15 08:03:01;;;;;;;8.00;5.60;;;;;;;;;;79701;264;3027276;-34
2023/03/15 08:05:39;;;;;;;8.30;6.00;;;;;;;;;;79584;264;3031544;-33
2023/03/15 08:08:14;;;;;;;9.10;5.90;;;;;;;;;;79588;264;3031727;-33
2023/03/15 08:10:52;;;;;;;7.70;5.60;;;;;;;;;;80294;264;3011529;-33
2023/03/15 08:13:29;;;;;;;7.10;5.50;;;;;;;;;;79652;264;3028550;-32
2023/03/15 08:16:09;;;;;;;7.00;5.20;;;;;;;;;;79621;264;3028031;-34
2023/03/15 08:19:13;;;;;;;7.80;5.60;;;;;;;;;;79651;264;3031099;-33
2023/03/15 08:21:52;;;;;;;8.80;5.50;;;;;;;;;;80308;264;3011573;-32
2023/03/15 08:24:29;;;;;;;7.50;5.40;;;;;;;;;;79620;264;3031243;-32
2023/03/15 08:27:08;;;;;;;7.90;5.00;;;;;;;;;;80401;264;3011483;-32
2023/03/15 08:29:45;;;;;;;6.40;5.00;;;;;;;;;;79621;264;3028250;-35
2023/03/15 08:32:27;;;;;;;7.70;5.10;;;;;;;;;;79673;264;3027549;-33
2023/03/15 08:35:05;;;;;;;6.50;4.90;;;;;;;;;;79616;253;3030895;-33
2023/03/15 08:37:41;;;;;;;8.20;5.30;;;;;;;;;;79630;264;3031116;-34
2023/03/15 08:40:23;;;;;;;8.60;4.90;;;;;;;;;;79655;264;3028655;-34
2023/03/15 08:43:00;;;;;;;7.40;5.10;;;;;;;;;;79639;264;3035234;-33
2023/03/15 08:45:36;;;;;;;8.00;5.40;;;;;;;;;;79657;264;3030783;-36
2023/03/15 08:48:34;;;;;;;7.70;5.50;;;;;;;;;;79639;264;3031439;-33
2023/03/15 08:51:12;;;;;;;7.10;5.10;;;;;;;;;;79587;264;3028089;-34
2023/03/15 08:53:47;;;;;;;8.40;5.40;;;;;;;;;;79633;264;3027130;-33
2023/03/15 08:56:26;;;;;;;7.50;4.70;;;;;;;;;;79678;264;3031130;-32
2023/03/15 08:59:01;;;;;;;7.40;5.00;;;;;;;;;;79688;263;3032018;-34
2023/03/15 09:01:40;;;;;;;6.90;4.60;;;;;;;;;;80390;264;3011419;-34
2023/03/15 09:04:14;;;;;;;7.40;4.40;;;;;;;;;;79643;264;3028730;-34
2023/03/15 09:06:53;;;;;;;8.20;4.80;;;;;;;;;;79588;265;3027160;-34
2023/03/15 09:09:35;;;;;;;8.70;4.80;;;;;;;;;;79578;265;3030625;-33
2023/03/15 09:12:15;;;;;;;7.40;4.30;;;;;;;;;;79567;265;3031551;-35
2023/03/15 09:14:55;;;;;;;7.20;4.60;;;;;;;;;;79616;265;3028677;-34
2023/03/15 09:17:36;;;;;;;7.90;4.80;;;;;;;;;;79662;264;3027351;-34
2023/03/15 09:20:15;;;;;;;6.70;4.30;;;;;;;;;;79641;264;3030885;-34
2023/03/15 09:22:55;;;;;;;8.00;4.30;;;;;;;;;;79580;264;3031156;-33
2023/03/15 09:25:34;;;;;;;7.30;4.50;;;;;;;;;;79637;264;3028926;-33
2023/03/15 09:28:13;;;;;;;7.40;4.30;;;;;;;;;;79628;264;3027534;-34
2023/03/15 09:30:50;;;;;;;7.50;4.00;;;;;;;;;;79626;264;3031184;-33
2023/03/15 09:33:28;;;;;;;9.70;5.20;;;;;;;;;;79639;264;3031128;-33
2023/03/15 09:36:12;;;;;;;7.60;4.30;;;;;;;;;;79652;264;3028948;-33
2023/03/15 09:38:47;;;;;;;6.40;3.70;;;;;;;;;;79623;264;3027267;-33
2023/03/15 09:41:40;;;;;;;7.30;4.40;;;;;;;;;;79665;264;3031243;-33
2023/03/15 09:44:35;;;;;;;6.00;3.80;;;;;;;;;;79627;264;3039989;-33
2023/03/15 09:47:35;;;;;;;5.70;3.90;;;;;;;;;;79647;264;3028694;-33
2023/03/15 09:50:21;;;;;;;6.30;3.70;;;;;;;;;;79657;253;3027945;-32
2023/03/15 09:53:02;;;;;;;7.90;4.00;;;;;;;;;;79615;264;3513623;-33
2023/03/15 09:55:40;;;;;;;7.20;3.70;;;;;;;;;;79580;265;3032001;-33
2023/03/15 09:58:19;;;;;;;6.90;3.50;;;;;;;;;;79657;264;3028386;-33
2023/03/15 10:01:01;;;;;;;6.50;3.90;;;;;;;;;;79629;264;3027044;-33
2023/03/15 10:03:46;;;;;;;7.50;3.70;;;;;;;;;;79613;264;3030689;-33
2023/03/15 10:06:33;;;;;;;6.50;3.50;;;;;;;;;;79625;264;3031344;-33
2023/03/15 10:09:22;;;;;;;7.40;3.80;;;;;;;;;;79637;264;3028290;-34
2023/03/15 10:12:06;;;;;;;7.00;3.60;;;;;;;;;;79615;264;3027040;-33
2023/03/15 10:15:16;;;;;;;6.00;3.40;;;;;;;;;;79611;264;3031135;-34
2023/03/15 10:18:14;;;;;;;6.10;3.20;;;;;;;;;;79611;253;3031195;-33
2023/03/15 10:20:59;;;;;;;5.70;3.30;;;;;;;;;;79664;264;3028431;-32
2023/03/15 10:23:47;;;;;;;6.20;3.00;;;;;;;;;;79615;264;3027436;-31
2023/03/15 10:26:29;;;;;;;5.60;3.00;;;;;;;;;;79587;264;3030708;-31
2023/03/15 10:29:13;;;;;;;5.10;3.20;;;;;;;;;;79621;264;3031633;-32
2023/03/15 10:31:51;;;;;;;5.50;2.90;;;;;;;;;;79625;264;3028221;-36
2023/03/15 10:34:28;;;;;;;5.20;2.90;;;;;;;;;;79640;264;3027196;-37
2023/03/15 10:37:05;;;;;;;5.40;2.90;;;;;;;;;;79636;264;3031093;-34
2023/03/15 10:39:45;;;;;;;5.20;3.00;;;;;;;;;;79568;264;3031270;-33
2023/03/15 10:42:31;;;;;;;6.30;3.20;;;;;;;;;;79603;264;3027862;-35
2023/03/15 10:45:21;;;;;;;;;;;;;;;;;;79617;264;3027806;-36
2023/03/15 10:47:58;;;;;;;4.90;2.80;;;;;;;;;;79579;264;3030356;-35
2023/03/15 10:50:39;;;;;;;5.20;2.70;;;;;;;;;;79583;264;3031844;-35
2023/03/15 10:53:21;;;;;;;5.30;2.80;;;;;;;;;;79593;264;3028835;-34
2023/03/15 10:56:11;;;;;;;6.00;3.10;;;;;;;;;;79571;264;3035922;-34
2023/03/15 10:58:53;;;;;;;4.90;2.60;;;;;;;;;;79579;264;3031036;-35
2023/03/15 11:01:48;;;;;;;5.70;2.80;;;;;;;;;;79558;265;3031820;-35
2023/03/15 11:04:27;;;;;;;5.10;2.80;;;;;;;;;;79580;265;3028586;-35
2023/03/15 11:07:12;;;;;;;5.60;2.70;;;;;;;;;;79636;264;3027081;-33
2023/03/15 11:09:54;;;;;;;5.70;2.80;;;;;;;;;;79623;264;3030779;-34
2023/03/15 11:12:35;;;;;;;4.70;2.70;;;;;;;;;;79609;264;3032099;-34
2023/03/15 11:15:15;;;;;;;5.30;2.80;;;;;;;;;;79592;264;3028818;-33
2023/03/15 11:17:56;;;;;;;5.40;2.80;;;;;;;;;;79570;264;3027692;-33
2023/03/15 11:20:36;;;;;;;5.50;2.60;;;;;;;;;;79584;264;3030825;-34
2023/03/15 11:23:20;;;;;;;6.70;3.00;;;;;;;;;;79616;253;3031759;-33
2023/03/15 11:25:55;;;;;;;;;;;;;;;;;;79580;265;3028534;-34
2023/03/15 11:28:37;;;;;;;8.00;3.90;;;;;;;;;;79629;264;3027118;-39
2023/03/15 11:31:15;;;;;;;5.80;3.00;;;;;;;;;;79651;264;3031035;-35
2023/03/15 11:33:56;;;;;;;7.50;3.60;;;;;;;;;;79622;264;3031115;-38
2023/03/15 11:36:37;;;;;;;7.50;3.30;;;;;;;;;;79590;264;3028561;-36
2023/03/15 11:39:27;;;;;;;6.70;3.30;;;;;;;;;;79573;264;3027439;-35
2023/03/15 11:42:14;;;;;;;7.50;3.70;;;;;;;;;;79586;264;3031633;-34
2023/03/15 11:44:53;;;;;;;6.30;3.20;;;;;;;;;;79545;261;3031573;-33
2023/03/15 11:47:43;;;;;;;6.20;3.40;;;;;;;;;;79617;264;3027930;-36
2023/03/15 11:50:21;;;;;;;6.30;3.00;;;;;;;;;;79622;264;3029515;-34
2023/03/15 11:53:02;;;;;;;6.10;3.10;;;;;;;;;;79626;264;3031274;-34
2023/03/15 11:55:40;;;;;;;5.60;3.20;;;;;;;;;;79566;265;3031684;-34
2023/03/15 11:58:34;;;;;;;5.50;3.00;;;;;;;;;;79625;264;3028682;-35
2023/03/15 12:01:13;;;;;;;5.70;3.00;;;;;;;;;;79635;264;3027734;-36
2023/03/15 12:03:55;;;;;;;6.60;3.10;;;;;;;;;;79579;264;3031062;-36
2023/03/15 12:06:42;;;;;;;4.80;3.00;;;;;;;;;;79590;264;3032641;-39
2023/03/15 12:09:51;;;;;;;5.70;3.00;;;;;;;;;;79637;264;3028464;-35
2023/03/15 12:12:43;;;;;;;5.90;3.00;;;;;;;;;;79655;264;3027957;-35
2023/03/15 12:15:48;;;;;;;5.80;2.80;;;;;;;;;;79560;264;3031308;-37
2023/03/15 12:18:32;;;;;;;4.70;2.80;;;;;;;;;;79627;264;3031259;-36
2023/03/15 12:21:20;;;;;;;5.20;2.90;;;;;;;;;;79609;264;3028790;-37
2023/03/15 12:24:07;;;;;;;6.10;3.20;;;;;;;;;;79599;264;3027334;-36
2023/03/15 12:26:47;;;;;;;5.10;2.90;;;;;;;;;;79608;264;3030838;-36
2023/03/15 12:29:25;;;;;;;6.00;2.80;;;;;;;;;;79625;264;3032742;-36
2023/03/15 12:32:16;;;;;;;5.70;3.00;;;;;;;;;;79636;264;3027905;-35
2023/03/15 12:34:57;;;;;;;5.00;3.00;;;;;;;;;;79626;264;3027262;-35
2023/03/15 12:37:45;;;;;;;5.50;2.70;;;;;;;;;;79637;264;3030730;-35
2023/03/15 12:40:51;;;;;;;5.10;3.00;;;;;;;;;;79625;264;3031376;-35
2023/03/15 12:43:44;;;;;;;5.20;2.80;;;;;;;;;;79631;264;3028777;-35
2023/03/15 12:46:56;;;;;;;4.90;2.80;;;;;;;;;;79633;264;3027075;-35
2023/03/15 12:49:41;;;;;;;4.50;2.60;;;;;;;;;;79646;264;3030573;-35
2023/03/15 12:52:42;;;;;;;4.50;2.70;;;;;;;;;;79656;264;3031261;-35
2023/03/15 12:55:22;;;;;;;5.50;2.90;;;;;;;;;;79623;264;3027915;-35
2023/03/15 12:57:59;;;;;;;4.70;2.70;;;;;;;;;;79615;264;3027004;-35
2023/03/15 13:00:41;;;;;;;4.90;2.50;;;;;;;;;;79631;264;3030850;-35
2023/03/15 13:03:20;;;;;;;4.60;2.70;;;;;;;;;;79615;264;3032100;-35
2023/03/15 13:06:14;;;;;;;4.70;2.60;;;;;;;;;;79608;264;3028424;-35
2023/03/15 13:09:00;;;;;;;4.70;2.60;;;;;;;;;;79587;264;3033374;-36
2023/03/15 13:11:42;;;;;;;4.70;2.60;;;;;;;;;;79624;264;3031322;-34
2023/03/15 13:14:33;;;;;;;4.70;2.60;;;;;;;;;;79601;264;3031112;-34
2023/03/15 13:17:21;;;;;;;5.10;2.80;;;;;;;;;;79601;264;3030406;-33
2023/03/15 13:20:13;;;;;;;4.60;2.50;;;;;;;;;;79608;264;3029366;-35
2023/03/15 13:22:57;;;;;;;4.40;2.50;;;;;;;;;;79586;264;3031714;-34
2023/03/15 13:25:41;;;;;;;5.10;2.50;;;;;;;;;;79660;264;3031367;-36
2023/03/15 13:28:24;;;;;;;5.40;2.70;;;;;;;;;;79595;265;3027992;-33
2023/03/15 13:31:01;;;;;;;4.80;2.80;;;;;;;;;;79634;265;3027217;-35
2023/03/15 13:33:40;;;;;;;4.90;2.60;;;;;;;;;;79638;264;3030909;-35
2023/03/15 13:36:19;;;;;;;4.00;2.40;;;;;;;;;;79634;264;3031376;-35
2023/03/15 13:38:57;;;;;;;5.00;2.70;;;;;;;;;;79591;264;3028039;-36
2023/03/15 13:41:34;;;;;;;5.20;2.60;;;;;;;;;;79624;264;3027218;-36
2023/03/15 13:44:20;;;;;;;5.20;2.50;;;;;;;;;;79614;264;3030856;-36
2023/03/15 13:46:56;;;;;;;5.10;2.70;;;;;;;;;;79642;264;3031471;-36
2023/03/15 13:49:40;;;;;;;4.90;2.50;;;;;;;;;;79580;264;3028624;-36
2023/03/15 13:52:16;;;;;;;5.20;2.50;;;;;;;;;;79607;264;3027140;-37
2023/03/15 13:54:55;;;;;;;4.70;2.20;;;;;;;;;;79644;264;3031950;-38
2023/03/15 13:57:31;;;;;;;4.50;2.30;;;;;;;;;;79610;264;3031416;-36
2023/03/15 14:00:12;;;;;;;4.30;2.50;;;;;;;;;;79606;264;3035375;-36
2023/03/15 14:03:01;;;;;;;4.70;2.50;;;;;;;;;;79657;264;3027045;-36
2023/03/15 14:05:49;;;;;;;5.40;2.60;;;;;;;;;;79617;264;3032071;-36
2023/03/15 14:08:30;;;;;;;4.70;2.40;;;;;;;;;;79643;264;3031505;-36
2023/03/15 14:11:11;;;;;;;5.00;2.50;;;;;;;;;;79659;264;3028513;-36
2023/03/15 14:13:58;;;;;;;4.60;2.40;;;;;;;;;;79583;264;3027648;-36
2023/03/15 14:16:42;;;;;;;5.10;2.70;;;;;;;;;;79599;272;3031836;-36
2023/03/15 14:19:38;;;;;;;4.60;2.40;;;;;;;;;;79575;264;3031063;-36
2023/03/15 14:22:23;;;;;;;5.40;2.50;;;;;;;;;;79649;264;3028357;-36
2023/03/15 14:24:58;;;;;;;4.70;2.70;;;;;;;;;;79627;264;3027289;-36
2023/03/15 14:27:38;;;;;;;4.80;2.70;;;;;;;;;;79654;264;3031268;-36
2023/03/15 14:30:24;;;;;;;5.10;2.60;;;;;;;;;;79620;264;3031896;-36
2023/03/15 14:33:06;;;;;;;5.00;2.70;;;;;;;;;;79594;265;3028209;-35
2023/03/15 14:35:47;;;;;;;5.40;2.80;;;;;;;;;;79655;264;3027077;-36
2023/03/15 14:38:25;;;;;;;5.00;2.70;;;;;;;;;;79608;264;3031211;-36
2023/03/15 14:41:25;;;;;;;4.90;2.70;;;;;;;;;;79655;264;3038286;-36
2023/03/15 14:44:01;;;;;;;5.20;2.70;;;;;;;;;;79609;313;3028129;-36
2023/03/15 14:46:42;;;;;;;4.90;3.00;;;;;;;;;;79652;264;3027656;-37
2023/03/15 14:49:27;;;;;;;5.50;2.70;;;;;;;;;;79605;264;3030987;-37
2023/03/15 14:52:06;;;;;;;5.00;2.90;;;;;;;;;;79633;264;3031562;-37
2023/03/15 14:54:49;;;;;;;4.50;2.80;;;;;;;;;;79658;264;3028145;-37
2023/03/15 14:57:27;;;;;;;5.40;2.90;;;;;;;;;;79623;264;3028366;-37
2023/03/15 15:00:15;;;;;;;5.20;3.00;;;;;;;;;;79626;264;3030675;-37
2023/03/15 15:02:56;;;;;;;4.90;2.90;;;;;;;;;;79617;264;3031190;-37
2023/03/15 15:05:33;;;;;;;5.20;2.80;;;;;;;;;;79664;264;3028608;-37
2023/03/15 15:08:14;;;;;;;4.70;2.80;;;;;;;;;;79646;264;3027988;-37
2023/03/15 15:10:52;;;;;;;4.60;2.70;;;;;;;;;;79587;264;3031310;-37
2023/03/15 15:13:30;;;;;;;4.60;2.70;;;;;;;;;;79618;264;3031996;-37
2023/03/15 15:16:07;;;;;;;4.80;2.50;;;;;;;;;;79689;264;3028734;-37
2023/03/15 15:18:46;;;;;;;4.90;2.70;;;;;;;;;;79677;264;3027530;-35
2023/03/15 15:21:27;;;;;;;5.30;3.10;;;;;;;;;;79623;264;3031000;-36
2023/03/15 15:24:07;;;;;;;4.90;2.90;;;;;;;;;;79661;264;3032547;-36
2023/03/15 15:26:51;;;;;;;4.90;2.70;;;;;;;;;;79655;264;3028580;-36
2023/03/15 15:29:28;;;;;;;;;;;;;;;;;;79656;264;3027476;-36
2023/03/15 15:32:09;;;;;;;5.30;3.20;;;;;;;;;;79641;264;3037107;-36
2023/03/15 15:34:46;;;;;;;6.40;3.20;;;;;;;;;;79615;264;3031341;-36
2023/03/15 15:37:26;;;;;;;5.70;2.90;;;;;;;;;;79639;264;3028124;-37
2023/03/15 15:40:05;;;;;;;5.50;3.20;;;;;;;;;;79595;264;3027789;-37
2023/03/15 15:42:43;;;;;;;5.60;2.80;;;;;;;;;;79668;264;3030754;-36
2023/03/15 15:45:24;;;;;;;6.00;3.00;;;;;;;;;;79608;264;3031597;-36
2023/03/15 15:48:04;;;;;;;5.90;2.70;;;;;;;;;;79619;264;3028236;-36
2023/03/15 15:50:44;;;;;;;5.60;2.90;;;;;;;;;;79612;264;3027155;-36